Temp: --°C   Baro: 1019.2mb
  Wind: 0.0mph   Dir: SW (226°)
  Rain: 0.0mm (--mm/hr)
  Solar: W/m2  Hum: %
 
Cotswold Observatory Historical Data
Daily Summary for January 15, 2020 Units:  Both    English   Metric
Next Day »
Daily Weekly Monthly Yearly Custom
  High: Low: Average:
Temperature: 49.3 °F /  9.6 °C -0 °F /  -17.8 °C 36.3 °F /  2.4 °C
Dew Point: 45.3 °F /  7.4 °C -0 °F /  -17.8 °C 32.9 °F /  0.5 °C
Humidity: 95% % 67%
Wind Speed: 17.9mph /  28.8km/h - 4mph /  6.5km/h
Wind Gust: 22mph /  35.4km/h - -
Wind direction- - SW
Pressure: 30 in /  1016.8 hPa 29.4 in /  995.8 hPa -
Precipitation: 0.06 in /  1.5 mm    
Historical Graphs
 
 
Tabular Data for January 15, 2020
Time Temperature Dew Point Pressure Wind direction Wind Speed Wind Gust Humidity Rainfall Rate (Hourly) solar
00:00 46.8 °F /  8.2 °C 45.3 °F /  7.4 °C 29.4in /  995.8hPa NNW 4mph /  6.4km/h 9mph /  14.5km/h 95% 0.03in /  0.8mm 0.00 W/m2
00:05 46.6 °F /  8.1 °C 45.1 °F /  7.3 °C 29.4in /  995.8hPa West 14.1mph /  22.7km/h 15mph /  24.1km/h 95% 0.03in /  0.8mm 0.00 W/m2
00:10 46 °F /  7.8 °C 44.6 °F /  7.0 °C 29.4in /  995.8hPa WNW 11mph /  17.7km/h 16mph /  25.7km/h 95% 0.03in /  0.8mm 0.00 W/m2
00:15 45.9 °F /  7.7 °C 44.4 °F /  6.9 °C 29.4in /  996.2hPa West 10.1mph /  16.3km/h 14mph /  22.5km/h 95% 0.04in /  1.0mm 0.00 W/m2
00:20 45.7 °F /  7.6 °C 44.4 °F /  6.9 °C 29.4in /  995.8hPa NW 4mph /  6.4km/h 12mph /  19.3km/h 95% 0.04in /  1.0mm 0.00 W/m2
00:25 45.5 °F /  7.5 °C 44.2 °F /  6.8 °C 29.4in /  995.8hPa NNW 4.9mph /  7.9km/h 11mph /  17.7km/h 95% 0.04in /  1.0mm 0.00 W/m2
00:30 45.7 °F /  7.6 °C 44.4 °F /  6.9 °C 29.4in /  996.2hPa West 4mph /  6.4km/h 12mph /  19.3km/h 95% 0.03in /  0.8mm 0.00 W/m2
00:35 45.7 °F /  7.6 °C 44.4 °F /  6.9 °C 29.4in /  996.2hPa West 4mph /  6.4km/h 12mph /  19.3km/h 95% 0.03in /  0.8mm 0.00 W/m2
00:40 45.7 °F /  7.6 °C 44.4 °F /  6.9 °C 29.4in /  996.2hPa NW 6mph /  9.7km/h 12mph /  19.3km/h 95% 0.03in /  0.8mm 0.00 W/m2
00:45 45.7 °F /  7.6 °C 44.4 °F /  6.9 °C 29.4in /  996.2hPa NW 2.9mph /  4.7km/h 9mph /  14.5km/h 95% 0.03in /  0.8mm 0.00 W/m2
00:50 45.7 °F /  7.6 °C 44.4 °F /  6.9 °C 29.4in /  996.5hPa WNW 11mph /  17.7km/h 13mph /  20.9km/h 95% 0.03in /  0.8mm 0.00 W/m2
00:55 45.3 °F /  7.4 °C 43.7 °F /  6.5 °C 29.4in /  996.8hPa WSW 4.9mph /  7.9km/h 11mph /  17.7km/h 94% 0.02in /  0.5mm 0.00 W/m2
01:00 45.5 °F /  7.5 °C 44.2 °F /  6.8 °C 29.4in /  996.8hPa WSW 4mph /  6.4km/h 9mph /  14.5km/h 95% 0.02in /  0.5mm 0.00 W/m2
01:05 45.5 °F /  7.5 °C 44.2 °F /  6.8 °C 29.4in /  996.8hPa WSW 4mph /  6.4km/h 10mph /  16.1km/h 95% 0.02in /  0.5mm 0.00 W/m2
01:10 45.3 °F /  7.4 °C 44.1 °F /  6.7 °C 29.4in /  996.8hPa West 4mph /  6.4km/h 10mph /  16.1km/h 95% 0.02in /  0.5mm 0.00 W/m2
01:15 45.5 °F /  7.5 °C 44.2 °F /  6.8 °C 29.5in /  997.2hPa West 10.1mph /  16.3km/h 10mph /  16.1km/h 95% 0.01in /  0.3mm 0.00 W/m2
01:20 45.5 °F /  7.5 °C 44.2 °F /  6.8 °C 29.5in /  997.2hPa West 8.9mph /  14.3km/h 9mph /  14.5km/h 95% 0in /  0.0mm 0.00 W/m2
01:25 45.5 °F /  7.5 °C 43.9 °F /  6.6 °C 29.5in /  997.5hPa West 13mph /  20.9km/h 16mph /  25.7km/h 94% 0in /  0.0mm 0.00 W/m2
01:30 45.1 °F /  7.3 °C 43.5 °F /  6.4 °C 29.5in /  997.9hPa NW 10.1mph /  16.3km/h 16mph /  25.7km/h 94% 0in /  0.0mm 0.00 W/m2
01:35 45 °F /  7.2 °C 43.3 °F /  6.3 °C 29.5in /  997.5hPa WNW 10.1mph /  16.3km/h 11mph /  17.7km/h 94% 0in /  0.0mm 0.00 W/m2
01:40 44.8 °F /  7.1 °C 43.2 °F /  6.2 °C 29.5in /  997.9hPa West 4.9mph /  7.9km/h 15mph /  24.1km/h 94% 0in /  0.0mm 0.00 W/m2
01:45 44.8 °F /  7.1 °C 43.2 °F /  6.2 °C 29.5in /  997.9hPa WNW 6mph /  9.7km/h 11mph /  17.7km/h 94% 0in /  0.0mm 0.00 W/m2
01:50 44.6 °F /  7.0 °C 43 °F /  6.1 °C 29.5in /  997.9hPa West 4mph /  6.4km/h 8mph /  12.9km/h 94% 0in /  0.0mm 0.00 W/m2
01:55 44.8 °F /  7.1 °C 43.2 °F /  6.2 °C 29.5in /  997.9hPa West 2mph /  3.2km/h 8mph /  12.9km/h 94% 0in /  0.0mm 0.00 W/m2
02:00 44.8 °F /  7.1 °C 42.8 °F /  6.0 °C 29.5in /  997.9hPa West 4.9mph /  7.9km/h 5mph /  8.0km/h 93% 0.01in /  0.3mm 0.00 W/m2
02:05 44.8 °F /  7.1 °C 42.8 °F /  6.0 °C 29.5in /  998.2hPa West 2mph /  3.2km/h 4mph /  6.4km/h 93% 0.01in /  0.3mm 0.00 W/m2
02:10 45 °F /  7.2 °C 43 °F /  6.1 °C 29.5in /  998.2hPa Calm   4mph /  6.4km/h 93% 0.01in /  0.3mm 0.00 W/m2
02:15 45 °F /  7.2 °C 43.3 °F /  6.3 °C 29.5in /  998.2hPa NW 4.9mph /  7.9km/h 7mph /  11.3km/h 94% 0.01in /  0.3mm 0.00 W/m2
02:20 45 °F /  7.2 °C 43 °F /  6.1 °C 29.5in /  998.2hPa WNW 8.9mph /  14.3km/h 10mph /  16.1km/h 93% 0.01in /  0.3mm 0.00 W/m2
02:25 44.8 °F /  7.1 °C 42.8 °F /  6.0 °C 29.5in /  998.2hPa West 4.9mph /  7.9km/h 8mph /  12.9km/h 93% 0.01in /  0.3mm 0.00 W/m2
02:30 45 °F /  7.2 °C 43 °F /  6.1 °C 29.5in /  998.5hPa WSW 4mph /  6.4km/h 8mph /  12.9km/h 93% 0.01in /  0.3mm 0.00 W/m2
02:35 45 °F /  7.2 °C 43 °F /  6.1 °C 29.5in /  998.5hPa West 4.9mph /  7.9km/h 8mph /  12.9km/h 93% 0.01in /  0.3mm 0.00 W/m2
02:40 45 °F /  7.2 °C 43 °F /  6.1 °C 29.5in /  998.5hPa WNW 4.9mph /  7.9km/h 5mph /  8.0km/h 93% 0.01in /  0.3mm 0.00 W/m2
02:45 45 °F /  7.2 °C 43 °F /  6.1 °C 29.5in /  998.5hPa West 6.9mph /  11.1km/h 7mph /  11.3km/h 93% 0.01in /  0.3mm 0.00 W/m2
02:50 45.1 °F /  7.3 °C 43.2 °F /  6.2 °C 29.5in /  998.5hPa West 4.9mph /  7.9km/h 7mph /  11.3km/h 93% 0.01in /  0.3mm 0.00 W/m2
02:55 45.1 °F /  7.3 °C 43.2 °F /  6.2 °C 29.5in /  998.9hPa WSW 2mph /  3.2km/h 6mph /  9.7km/h 93% 0.01in /  0.3mm 0.00 W/m2
03:00 45.1 °F /  7.3 °C 43.2 °F /  6.2 °C 29.5in /  998.9hPa West 2.9mph /  4.7km/h 8mph /  12.9km/h 93% 0in /  0.0mm 0.00 W/m2
03:05 45.1 °F /  7.3 °C 43.2 °F /  6.2 °C 29.5in /  999.2hPa West 4mph /  6.4km/h 4mph /  6.4km/h 93% 0in /  0.0mm 0.00 W/m2
03:10 45.1 °F /  7.3 °C 43.2 °F /  6.2 °C 29.5in /  998.9hPa Calm   3mph /  4.8km/h 93% 0in /  0.0mm 0.00 W/m2
03:15 45.1 °F /  7.3 °C 43.2 °F /  6.2 °C 29.5in /  998.9hPa WSW 2mph /  3.2km/h 7mph /  11.3km/h 93% 0in /  0.0mm 0.00 W/m2
03:20 45.1 °F /  7.3 °C 43.2 °F /  6.2 °C 29.5in /  998.9hPa Calm   3mph /  4.8km/h 93% 0in /  0.0mm 0.00 W/m2
03:25 45.1 °F /  7.3 °C 43.2 °F /  6.2 °C 29.5in /  998.9hPa Calm   4mph /  6.4km/h 93% 0in /  0.0mm 0.00 W/m2
03:30 45.1 °F /  7.3 °C 43.2 °F /  6.2 °C 29.5in /  998.5hPa SW 2mph /  3.2km/h 4mph /  6.4km/h 93% 0in /  0.0mm 0.00 W/m2
03:35 45.1 °F /  7.3 °C 43.2 °F /  6.2 °C 29.5in /  998.5hPa SW 4mph /  6.4km/h 6mph /  9.7km/h 93% 0in /  0.0mm 0.00 W/m2
03:40 45 °F /  7.2 °C 43 °F /  6.1 °C 29.5in /  998.5hPa SW 0.9mph /  1.4km/h 2mph /  3.2km/h 93% 0in /  0.0mm 0.00 W/m2
03:45 44.8 °F /  7.1 °C 42.8 °F /  6.0 °C 29.5in /  998.5hPa Calm   2mph /  3.2km/h 93% 0in /  0.0mm 0.00 W/m2
03:50 45 °F /  7.2 °C 43 °F /  6.1 °C 29.5in /  998.5hPa SW 2mph /  3.2km/h 4mph /  6.4km/h 93% 0in /  0.0mm 0.00 W/m2
03:55 45 °F /  7.2 °C 43 °F /  6.1 °C 29.5in /  998.5hPa Calm   3mph /  4.8km/h 93% 0in /  0.0mm 0.00 W/m2
04:00 45 °F /  7.2 °C 43 °F /  6.1 °C 29.5in /  998.5hPa SW 0.9mph /  1.4km/h 3mph /  4.8km/h 93% 0in /  0.0mm 0.00 W/m2
04:05 44.8 °F /  7.1 °C 42.8 °F /  6.0 °C 29.5in /  998.9hPa SSW 2mph /  3.2km/h 5mph /  8.0km/h 93% 0in /  0.0mm 0.00 W/m2
04:10 44.8 °F /  7.1 °C 42.8 °F /  6.0 °C 29.5in /  999.2hPa SW 2.9mph /  4.7km/h 7mph /  11.3km/h 93% 0in /  0.0mm 0.00 W/m2
04:15 44.8 °F /  7.1 °C 42.8 °F /  6.0 °C 29.5in /  999.2hPa Calm   1mph /  1.6km/h 93% 0in /  0.0mm 0.00 W/m2
04:20 44.8 °F /  7.1 °C 42.8 °F /  6.0 °C 29.5in /  999.2hPa SSW 2mph /  3.2km/h 9mph /  14.5km/h 93% 0in /  0.0mm 0.00 W/m2
04:25 44.8 °F /  7.1 °C 42.8 °F /  6.0 °C 29.5in /  999.2hPa SW 4mph /  6.4km/h 5mph /  8.0km/h 93% 0in /  0.0mm 0.00 W/m2
04:30 44.8 °F /  7.1 °C 42.8 °F /  6.0 °C 29.5in /  999.2hPa SSW 6mph /  9.7km/h 7mph /  11.3km/h 93% 0in /  0.0mm 0.00 W/m2
04:35 45 °F /  7.2 °C 43 °F /  6.1 °C 29.5in /  999.5hPa SSW 4mph /  6.4km/h 7mph /  11.3km/h 93% 0in /  0.0mm 0.00 W/m2
04:40 45 °F /  7.2 °C 42.8 °F /  6.0 °C 29.5in /  999.5hPa SSW 2.9mph /  4.7km/h 5mph /  8.0km/h 92% 0in /  0.0mm 0.00 W/m2
04:45 45 °F /  7.2 °C 42.8 °F /  6.0 °C 29.5in /  999.5hPa SSW 2.9mph /  4.7km/h 8mph /  12.9km/h 92% 0in /  0.0mm 0.00 W/m2
04:50 45 °F /  7.2 °C 42.8 °F /  6.0 °C 29.5in /  999.5hPa WSW 4mph /  6.4km/h 8mph /  12.9km/h 92% 0in /  0.0mm 0.00 W/m2
04:55 45 °F /  7.2 °C 42.8 °F /  6.0 °C 29.5in /  999.5hPa SSW 8.1mph /  13.0km/h 10mph /  16.1km/h 92% 0in /  0.0mm 0.00 W/m2
05:00 45 °F /  7.2 °C 42.8 °F /  6.0 °C 29.5in /  999.9hPa SSW 2.9mph /  4.7km/h 9mph /  14.5km/h 92% 0in /  0.0mm 0.00 W/m2
05:05 -0 °F /  -17.8 °C -0 °F /  -17.8 °C 29.5in /  999.9hPa SW 6.9mph /  11.1km/h 12mph /  19.3km/h % 0in /  0.0mm W/m2
05:10 -0 °F /  -17.8 °C -0 °F /  -17.8 °C 29.5in /  999.9hPa South 2.9mph /  4.7km/h 7mph /  11.3km/h % 0in /  0.0mm W/m2
05:15 -0 °F /  -17.8 °C -0 °F /  -17.8 °C 29.5in /  999.9hPa SSW 4.9mph /  7.9km/h 10mph /  16.1km/h % 0in /  0.0mm W/m2
05:20 -0 °F /  -17.8 °C -0 °F /  -17.8 °C 29.5in /  999.9hPa South 0.9mph /  1.4km/h 9mph /  14.5km/h % 0in /  0.0mm W/m2
05:25 -0 °F /  -17.8 °C -0 °F /  -17.8 °C 29.5in /  999.9hPa SSW 4.9mph /  7.9km/h 6mph /  9.7km/h % 0in /  0.0mm W/m2
05:30 -0 °F /  -17.8 °C -0 °F /  -17.8 °C 29.5in /  1000.2hPa SW 6mph /  9.7km/h 7mph /  11.3km/h % 0in /  0.0mm W/m2
05:35 -0 °F /  -17.8 °C -0 °F /  -17.8 °C 29.5in /  1000.2hPa South 4.9mph /  7.9km/h 7mph /  11.3km/h % 0in /  0.0mm W/m2
05:40 -0 °F /  -17.8 °C -0 °F /  -17.8 °C 29.5in /  1000.2hPa SSW 4mph /  6.4km/h 8mph /  12.9km/h % 0in /  0.0mm W/m2
05:45 -0 °F /  -17.8 °C -0 °F /  -17.8 °C 29.5in /  1000.2hPa SSW 4.9mph /  7.9km/h 6mph /  9.7km/h % 0in /  0.0mm W/m2
05:50 -0 °F /  -17.8 °C -0 °F /  -17.8 °C 29.5in /  1000.2hPa SSW 0.9mph /  1.4km/h 8mph /  12.9km/h % 0in /  0.0mm W/m2
05:55 -0 °F /  -17.8 °C -0 °F /  -17.8 °C 29.5in /  1000.2hPa SSW 6mph /  9.7km/h 8mph /  12.9km/h % 0in /  0.0mm W/m2
06:00 -0 °F /  -17.8 °C -0 °F /  -17.8 °C 29.5in /  1000.2hPa SSW 4.9mph /  7.9km/h 8mph /  12.9km/h % 0in /  0.0mm W/m2
06:05 -0 °F /  -17.8 °C -0 °F /  -17.8 °C 29.6in /  1000.6hPa SSW 8.1mph /  13.0km/h 8mph /  12.9km/h % 0in /  0.0mm W/m2
06:10 -0 °F /  -17.8 °C -0 °F /  -17.8 °C 29.6in /  1000.6hPa SSW 0.9mph /  1.4km/h 4mph /  6.4km/h % 0in /  0.0mm W/m2
06:15 -0 °F /  -17.8 °C -0 °F /  -17.8 °C 29.6in /  1000.6hPa SSW 4.9mph /  7.9km/h 8mph /  12.9km/h % 0in /  0.0mm W/m2
06:20 -0 °F /  -17.8 °C -0 °F /  -17.8 °C 29.6in /  1000.9hPa SSW 0.9mph /  1.4km/h 6mph /  9.7km/h % 0in /  0.0mm W/m2
06:25 -0 °F /  -17.8 °C -0 °F /  -17.8 °C 29.6in /  1000.6hPa South 2.9mph /  4.7km/h 5mph /  8.0km/h % 0in /  0.0mm W/m2
06:30 -0 °F /  -17.8 °C -0 °F /  -17.8 °C 29.6in /  1000.6hPa SSW 2.9mph /  4.7km/h 10mph /  16.1km/h % 0in /  0.0mm W/m2
06:35 -0 °F /  -17.8 °C -0 °F /  -17.8 °C 29.6in /  1000.6hPa South 2mph /  3.2km/h 5mph /  8.0km/h % 0in /  0.0mm W/m2
06:40 -0 °F /  -17.8 °C -0 °F /  -17.8 °C 29.6in /  1000.6hPa South 2.9mph /  4.7km/h 7mph /  11.3km/h % 0in /  0.0mm W/m2
06:45 -0 °F /  -17.8 °C -0 °F /  -17.8 °C 29.6in /  1000.6hPa SSW 2.9mph /  4.7km/h 9mph /  14.5km/h % 0in /  0.0mm W/m2
06:50 -0 °F /  -17.8 °C -0 °F /  -17.8 °C 29.6in /  1000.6hPa South 2mph /  3.2km/h 8mph /  12.9km/h % 0in /  0.0mm W/m2
06:55 -0 °F /  -17.8 °C -0 °F /  -17.8 °C 29.6in /  1000.6hPa SSW 2.9mph /  4.7km/h 6mph /  9.7km/h % 0in /  0.0mm W/m2
07:00 -0 °F /  -17.8 °C -0 °F /  -17.8 °C 29.6in /  1000.6hPa SSW 4mph /  6.4km/h 9mph /  14.5km/h % 0in /  0.0mm W/m2
07:05 -0 °F /  -17.8 °C -0 °F /  -17.8 °C 29.6in /  1000.6hPa SSW 2.9mph /  4.7km/h 5mph /  8.0km/h % 0in /  0.0mm W/m2
07:10 -0 °F /  -17.8 °C -0 °F /  -17.8 °C 29.6in /  1000.6hPa South 4.9mph /  7.9km/h 11mph /  17.7km/h % 0in /  0.0mm W/m2
07:15 -0 °F /  -17.8 °C -0 °F /  -17.8 °C 29.6in /  1000.9hPa SSW 6.9mph /  11.1km/h 9mph /  14.5km/h % 0in /  0.0mm W/m2
07:20 -0 °F /  -17.8 °C -0 °F /  -17.8 °C 29.6in /  1001.2hPa South 0.9mph /  1.4km/h 8mph /  12.9km/h % 0in /  0.0mm W/m2
07:25 -0 °F /  -17.8 °C -0 °F /  -17.8 °C 29.6in /  1001.2hPa SW 2mph /  3.2km/h 4mph /  6.4km/h % 0in /  0.0mm W/m2
07:30 -0 °F /  -17.8 °C -0 °F /  -17.8 °C 29.6in /  1001.2hPa SW 2.9mph /  4.7km/h 10mph /  16.1km/h % 0in /  0.0mm W/m2
07:35 -0 °F /  -17.8 °C -0 °F /  -17.8 °C 29.6in /  1001.2hPa Calm   6mph /  9.7km/h % 0in /  0.0mm W/m2
07:40 -0 °F /  -17.8 °C -0 °F /  -17.8 °C 29.6in /  1001.2hPa SW 4mph /  6.4km/h 4mph /  6.4km/h % 0in /  0.0mm W/m2
07:45 -0 °F /  -17.8 °C -0 °F /  -17.8 °C 29.6in /  1001.6hPa WSW 4mph /  6.4km/h 7mph /  11.3km/h % 0in /  0.0mm W/m2
07:50 -0 °F /  -17.8 °C -0 °F /  -17.8 °C 29.6in /  1001.9hPa Calm   4mph /  6.4km/h % 0in /  0.0mm W/m2
07:55 -0 °F /  -17.8 °C -0 °F /  -17.8 °C 29.6in /  1001.9hPa Calm   5mph /  8.0km/h % 0in /  0.0mm W/m2
08:00 -0 °F /  -17.8 °C -0 °F /  -17.8 °C 29.6in /  1001.9hPa WSW 0.9mph /  1.4km/h 6mph /  9.7km/h % 0in /  0.0mm W/m2
08:05 -0 °F /  -17.8 °C -0 °F /  -17.8 °C 29.6in /  1002.3hPa SSW 4mph /  6.4km/h 7mph /  11.3km/h % 0in /  0.0mm W/m2
08:10 -0 °F /  -17.8 °C -0 °F /  -17.8 °C 29.6in /  1002.3hPa Calm   2mph /  3.2km/h % 0in /  0.0mm W/m2
08:15 -0 °F /  -17.8 °C -0 °F /  -17.8 °C 29.6in /  1002.3hPa Calm   1mph /  1.6km/h % 0in /  0.0mm W/m2
08:20 -0 °F /  -17.8 °C -0 °F /  -17.8 °C 29.6in /  1002.3hPa SW 2.9mph /  4.7km/h 10mph /  16.1km/h % 0in /  0.0mm W/m2
08:25 -0 °F /  -17.8 °C -0 °F /  -17.8 °C 29.6in /  1002.3hPa SW 2.9mph /  4.7km/h 11mph /  17.7km/h % 0in /  0.0mm W/m2
08:30 -0 °F /  -17.8 °C -0 °F /  -17.8 °C 29.6in /  1002.6hPa Calm   8mph /  12.9km/h % 0in /  0.0mm W/m2
08:35 -0 °F /  -17.8 °C -0 °F /  -17.8 °C 29.6in /  1002.6hPa SW 8.1mph /  13.0km/h 11mph /  17.7km/h % 0in /  0.0mm W/m2
08:40 -0 °F /  -17.8 °C -0 °F /  -17.8 °C 29.6in /  1002.6hPa South 2.9mph /  4.7km/h 7mph /  11.3km/h % 0in /  0.0mm W/m2
08:45 -0 °F /  -17.8 °C -0 °F /  -17.8 °C 29.6in /  1002.9hPa SW 2.9mph /  4.7km/h 8mph /  12.9km/h % 0in /  0.0mm W/m2
08:50 -0 °F /  -17.8 °C -0 °F /  -17.8 °C 29.6in /  1002.6hPa SSW 4.9mph /  7.9km/h 8mph /  12.9km/h % 0in /  0.0mm W/m2
08:55 -0 °F /  -17.8 °C -0 °F /  -17.8 °C 29.6in /  1002.6hPa SSW 4mph /  6.4km/h 8mph /  12.9km/h % 0in /  0.0mm W/m2
09:00 -0 °F /  -17.8 °C -0 °F /  -17.8 °C 29.6in /  1002.6hPa South 4.9mph /  7.9km/h 9mph /  14.5km/h % 0in /  0.0mm W/m2
09:05 -0 °F /  -17.8 °C -0 °F /  -17.8 °C 29.6in /  1002.6hPa South 4.9mph /  7.9km/h 8mph /  12.9km/h % 0in /  0.0mm W/m2
09:10 -0 °F /  -17.8 °C -0 °F /  -17.8 °C 29.6in /  1002.9hPa SSW 4mph /  6.4km/h 11mph /  17.7km/h % 0in /  0.0mm W/m2
09:15 -0 °F /  -17.8 °C -0 °F /  -17.8 °C 29.6in /  1003.3hPa SSW 4mph /  6.4km/h 9mph /  14.5km/h % 0in /  0.0mm W/m2
09:20 -0 °F /  -17.8 °C -0 °F /  -17.8 °C 29.6in /  1003.3hPa South 2.9mph /  4.7km/h 9mph /  14.5km/h % 0in /  0.0mm W/m2
09:25 -0 °F /  -17.8 °C -0 °F /  -17.8 °C 29.6in /  1003.6hPa SSW 2.9mph /  4.7km/h 11mph /  17.7km/h % 0in /  0.0mm W/m2
09:30 -0 °F /  -17.8 °C -0 °F /  -17.8 °C 29.6in /  1003.6hPa SSW 2.9mph /  4.7km/h 8mph /  12.9km/h % 0in /  0.0mm W/m2
09:35 -0 °F /  -17.8 °C -0 °F /  -17.8 °C 29.6in /  1003.6hPa SSW 2.9mph /  4.7km/h 5mph /  8.0km/h % 0in /  0.0mm W/m2
09:40 -0 °F /  -17.8 °C -0 °F /  -17.8 °C 29.6in /  1003.9hPa Calm   7mph /  11.3km/h % 0in /  0.0mm W/m2
09:45 46 °F /  7.8 °C 43 °F /  6.1 °C 29.6in /  1003.6hPa SW 8.1mph /  13.0km/h 15mph /  24.1km/h 89% 0in /  0.0mm 42.00 W/m2
09:50 46.2 °F /  7.9 °C 43.2 °F /  6.2 °C 29.7in /  1004.3hPa SSW 2.9mph /  4.7km/h 6mph /  9.7km/h 89% 0in /  0.0mm 40.00 W/m2
09:55 46.2 °F /  7.9 °C 43.2 °F /  6.2 °C 29.7in /  1004.3hPa West 4mph /  6.4km/h 10mph /  16.1km/h 89% 0in /  0.0mm 49.00 W/m2
10:00 46.2 °F /  7.9 °C 43.2 °F /  6.2 °C 29.7in /  1004.3hPa SW 8.1mph /  13.0km/h 10mph /  16.1km/h 89% 0in /  0.0mm 47.00 W/m2
10:05 46.6 °F /  8.1 °C 43.5 °F /  6.4 °C 29.7in /  1004.6hPa WSW 8.9mph /  14.3km/h 9mph /  14.5km/h 89% 0in /  0.0mm 46.00 W/m2
10:10 46.6 °F /  8.1 °C 43.5 °F /  6.4 °C 29.7in /  1004.6hPa West 2mph /  3.2km/h 4mph /  6.4km/h 89% 0in /  0.0mm 62.00 W/m2
10:15 46.6 °F /  8.1 °C 43.5 °F /  6.4 °C 29.7in /  1004.6hPa South 4mph /  6.4km/h 6mph /  9.7km/h 89% 0in /  0.0mm 53.00 W/m2
10:20 46.6 °F /  8.1 °C 43.5 °F /  6.4 °C 29.7in /  1005.0hPa SSW 4mph /  6.4km/h 7mph /  11.3km/h 89% 0in /  0.0mm 58.00 W/m2
10:25 46.6 °F /  8.1 °C 43.5 °F /  6.4 °C 29.7in /  1005.0hPa SSW 2mph /  3.2km/h 5mph /  8.0km/h 89% 0in /  0.0mm 63.00 W/m2
10:30 46.8 °F /  8.2 °C 43.7 °F /  6.5 °C 29.7in /  1005.3hPa WSW 6mph /  9.7km/h 8mph /  12.9km/h 89% 0in /  0.0mm 47.00 W/m2
10:35 46.6 °F /  8.1 °C 43.5 °F /  6.4 °C 29.7in /  1005.3hPa WSW 2mph /  3.2km/h 8mph /  12.9km/h 89% 0in /  0.0mm 28.00 W/m2
10:40 46.6 °F /  8.1 °C 43.2 °F /  6.2 °C 29.7in /  1005.6hPa SW 2.9mph /  4.7km/h 6mph /  9.7km/h 88% 0in /  0.0mm 30.00 W/m2
10:45 46.2 °F /  7.9 °C 42.8 °F /  6.0 °C 29.7in /  1005.6hPa SW 0.9mph /  1.4km/h 9mph /  14.5km/h 88% 0in /  0.0mm 49.00 W/m2
10:50 46.2 °F /  7.9 °C 42.6 °F /  5.9 °C 29.7in /  1005.6hPa SSW 2mph /  3.2km/h 8mph /  12.9km/h 87% 0in /  0.0mm 98.00 W/m2
10:55 46.6 °F /  8.1 °C 43.2 °F /  6.2 °C 29.7in /  1005.6hPa West 4mph /  6.4km/h 8mph /  12.9km/h 88% 0in /  0.0mm 227.00 W/m2
11:00 46.8 °F /  8.2 °C 43.3 °F /  6.3 °C 29.7in /  1006.0hPa WSW 6.9mph /  11.1km/h 12mph /  19.3km/h 88% 0in /  0.0mm 237.00 W/m2
11:05 47.1 °F /  8.4 °C 43.7 °F /  6.5 °C 29.7in /  1006.0hPa WSW 4mph /  6.4km/h 9mph /  14.5km/h 88% 0in /  0.0mm 118.00 W/m2
11:10 46.9 °F /  8.3 °C 43.5 °F /  6.4 °C 29.7in /  1006.0hPa West 11mph /  17.7km/h 13mph /  20.9km/h 88% 0in /  0.0mm 176.00 W/m2
11:15 46.9 °F /  8.3 °C 43.3 °F /  6.3 °C 29.7in /  1006.3hPa WNW 11mph /  17.7km/h 12mph /  19.3km/h 87% 0in /  0.0mm 77.00 W/m2
11:20 46 °F /  7.8 °C 41.5 °F /  5.3 °C 29.7in /  1006.3hPa WSW 10.1mph /  16.3km/h 19mph /  30.6km/h 84% 0.01in /  0.3mm 44.00 W/m2
11:25 45.1 °F /  7.3 °C 40.6 °F /  4.8 °C 29.7in /  1006.7hPa West 17mph /  27.4km/h 22mph /  35.4km/h 84% 0.01in /  0.3mm 23.00 W/m2
11:30 44.1 °F /  6.7 °C 40.1 °F /  4.5 °C 29.7in /  1006.7hPa West 10.1mph /  16.3km/h 17mph /  27.4km/h 86% 0.02in /  0.5mm 39.00 W/m2
11:35 43.7 °F /  6.5 °C 40.1 °F /  4.5 °C 29.7in /  1006.3hPa SW 8.1mph /  13.0km/h 8mph /  12.9km/h 87% 0.02in /  0.5mm 39.00 W/m2
11:40 43.9 °F /  6.6 °C 40.6 °F /  4.8 °C 29.7in /  1006.3hPa SSW 2mph /  3.2km/h 7mph /  11.3km/h 88% 0.02in /  0.5mm 39.00 W/m2
11:45 44.2 °F /  6.8 °C 41.2 °F /  5.1 °C 29.7in /  1006.3hPa SSW 2.9mph /  4.7km/h 7mph /  11.3km/h 89% 0.02in /  0.5mm 149.00 W/m2
11:50 44.4 °F /  6.9 °C 41.4 °F /  5.2 °C 29.7in /  1006.3hPa West 2mph /  3.2km/h 6mph /  9.7km/h 89% 0.02in /  0.5mm 51.00 W/m2
13:30 49.1 °F /  9.5 °C 42.6 °F /  5.9 °C 29.8in /  1008.0hPa West 12.1mph /  19.5km/h 13mph /  20.9km/h 78% 0in /  0.0mm 218.00 W/m2
13:35 49.3 °F /  9.6 °C 42.8 °F /  6.0 °C 29.8in /  1008.4hPa WSW 4.9mph /  7.9km/h 10mph /  16.1km/h 78% 0in /  0.0mm 206.00 W/m2
13:40 49.3 °F /  9.6 °C 42.1 °F /  5.6 °C 29.8in /  1008.4hPa West 14.1mph /  22.7km/h 16mph /  25.7km/h 76% 0in /  0.0mm 186.00 W/m2
13:45 48.9 °F /  9.4 °C 41.4 °F /  5.2 °C 29.8in /  1008.4hPa West 4mph /  6.4km/h 9mph /  14.5km/h 75% 0in /  0.0mm 49.00 W/m2
13:50 48.7 °F /  9.3 °C 41.5 °F /  5.3 °C 29.8in /  1008.4hPa West 14.1mph /  22.7km/h 14mph /  22.5km/h 76% 0in /  0.0mm 109.00 W/m2
13:55 48.6 °F /  9.2 °C 41.4 °F /  5.2 °C 29.8in /  1008.4hPa West 10.1mph /  16.3km/h 14mph /  22.5km/h 76% 0in /  0.0mm 74.00 W/m2
14:00 48.6 °F /  9.2 °C 41.4 °F /  5.2 °C 29.8in /  1008.4hPa WSW 2mph /  3.2km/h 9mph /  14.5km/h 76% 0in /  0.0mm 107.00 W/m2
14:05 48.6 °F /  9.2 °C 41.4 °F /  5.2 °C 29.8in /  1008.7hPa West 12.1mph /  19.5km/h 17mph /  27.4km/h 76% 0in /  0.0mm 163.00 W/m2
14:10 48.6 °F /  9.2 °C 41.4 °F /  5.2 °C 29.8in /  1008.7hPa SSW 8.9mph /  14.3km/h 15mph /  24.1km/h 76% 0in /  0.0mm 148.00 W/m2
14:15 48.9 °F /  9.4 °C 42.1 °F /  5.6 °C 29.8in /  1008.7hPa WSW 2.9mph /  4.7km/h 9mph /  14.5km/h 77% 0in /  0.0mm 142.00 W/m2
14:20 48.9 °F /  9.4 °C 41.7 °F /  5.4 °C 29.8in /  1008.7hPa WNW 17.9mph /  28.8km/h 19mph /  30.6km/h 76% 0in /  0.0mm 132.00 W/m2
14:25 48.6 °F /  9.2 °C 41.4 °F /  5.2 °C 29.8in /  1009.0hPa WNW 8.1mph /  13.0km/h 16mph /  25.7km/h 76% 0in /  0.0mm 125.00 W/m2
14:30 48.6 °F /  9.2 °C 41.4 °F /  5.2 °C 29.8in /  1009.0hPa WSW 8.9mph /  14.3km/h 18mph /  29.0km/h 76% 0in /  0.0mm 113.00 W/m2
14:35 48.6 °F /  9.2 °C 41.7 °F /  5.4 °C 29.8in /  1009.4hPa West 14.1mph /  22.7km/h 15mph /  24.1km/h 77% 0in /  0.0mm 105.00 W/m2
14:40 48.7 °F /  9.3 °C 41.5 °F /  5.3 °C 29.8in /  1009.4hPa WSW 8.9mph /  14.3km/h 15mph /  24.1km/h 76% 0in /  0.0mm 98.00 W/m2
14:45 48.7 °F /  9.3 °C 41.9 °F /  5.5 °C 29.8in /  1009.7hPa SW 4mph /  6.4km/h 9mph /  14.5km/h 77% 0in /  0.0mm 93.00 W/m2
14:50 48.9 °F /  9.4 °C 41.7 °F /  5.4 °C 29.8in /  1009.4hPa West 8.1mph /  13.0km/h 12mph /  19.3km/h 76% 0in /  0.0mm 86.00 W/m2
14:55 48.9 °F /  9.4 °C 41.4 °F /  5.2 °C 29.8in /  1009.7hPa WSW 8.9mph /  14.3km/h 17mph /  27.4km/h 75% 0in /  0.0mm 79.00 W/m2
15:00 48.7 °F /  9.3 °C 41.5 °F /  5.3 °C 29.8in /  1009.7hPa SSW 4mph /  6.4km/h 9mph /  14.5km/h 76% 0in /  0.0mm 67.00 W/m2
15:05 48.6 °F /  9.2 °C 41 °F /  5.0 °C 29.8in /  1010.0hPa WSW 6.9mph /  11.1km/h 14mph /  22.5km/h 75% 0in /  0.0mm 30.00 W/m2
15:10 48.4 °F /  9.1 °C 40.8 °F /  4.9 °C 29.8in /  1010.0hPa WSW 6mph /  9.7km/h 11mph /  17.7km/h 75% 0in /  0.0mm 44.00 W/m2
15:15 48.4 °F /  9.1 °C 41.2 °F /  5.1 °C 29.8in /  1010.0hPa WSW 2.9mph /  4.7km/h 6mph /  9.7km/h 76% 0in /  0.0mm 35.00 W/m2
15:20 48.4 °F /  9.1 °C 40.8 °F /  4.9 °C 29.8in /  1010.4hPa SSW 2mph /  3.2km/h 10mph /  16.1km/h 75% 0in /  0.0mm 25.00 W/m2
15:25 48.4 °F /  9.1 °C 40.8 °F /  4.9 °C 29.8in /  1010.4hPa West 8.1mph /  13.0km/h 15mph /  24.1km/h 75% 0in /  0.0mm 44.00 W/m2
15:30 48.4 °F /  9.1 °C 40.8 °F /  4.9 °C 29.8in /  1010.7hPa SSW 4mph /  6.4km/h 8mph /  12.9km/h 75% 0in /  0.0mm 56.00 W/m2
15:35 48.4 °F /  9.1 °C 41.2 °F /  5.1 °C 29.8in /  1010.7hPa WSW 2.9mph /  4.7km/h 9mph /  14.5km/h 76% 0in /  0.0mm 40.00 W/m2
15:40 48.4 °F /  9.1 °C 40.8 °F /  4.9 °C 29.8in /  1010.7hPa SW 2.9mph /  4.7km/h 8mph /  12.9km/h 75% 0in /  0.0mm 25.00 W/m2
15:45 47.8 °F /  8.8 °C 40.3 °F /  4.6 °C 29.9in /  1011.1hPa WSW 4mph /  6.4km/h 11mph /  17.7km/h 75% 0in /  0.0mm 23.00 W/m2
15:50 47.7 °F /  8.7 °C 40.1 °F /  4.5 °C 29.9in /  1011.1hPa West 4mph /  6.4km/h 8mph /  12.9km/h 75% 0in /  0.0mm 26.00 W/m2
15:55 47.5 °F /  8.6 °C 40.3 °F /  4.6 °C 29.9in /  1011.1hPa West 6.9mph /  11.1km/h 7mph /  11.3km/h 76% 0in /  0.0mm 19.00 W/m2
16:00 47.3 °F /  8.5 °C 40.1 °F /  4.5 °C 29.9in /  1011.4hPa Calm   6mph /  9.7km/h 76% 0in /  0.0mm 16.00 W/m2
16:05 47.1 °F /  8.4 °C 40.3 °F /  4.6 °C 29.9in /  1011.4hPa WSW 4mph /  6.4km/h 7mph /  11.3km/h 77% 0in /  0.0mm 14.00 W/m2
16:10 47.1 °F /  8.4 °C 40.6 °F /  4.8 °C 29.9in /  1011.4hPa Calm   1mph /  1.6km/h 78% 0in /  0.0mm 11.00 W/m2
16:15 46.8 °F /  8.2 °C 40.3 °F /  4.6 °C 29.9in /  1011.4hPa SW 2.9mph /  4.7km/h 7mph /  11.3km/h 78% 0in /  0.0mm 9.00 W/m2
16:20 46.8 °F /  8.2 °C 40.6 °F /  4.8 °C 29.9in /  1011.7hPa Calm   4mph /  6.4km/h 79% 0in /  0.0mm 7.00 W/m2
16:25 46.6 °F /  8.1 °C 40.5 °F /  4.7 °C 29.9in /  1011.7hPa SSW 4mph /  6.4km/h 6mph /  9.7km/h 79% 0in /  0.0mm 5.00 W/m2
16:30 46.6 °F /  8.1 °C 40.5 °F /  4.7 °C 29.9in /  1011.7hPa WSW 4.9mph /  7.9km/h 10mph /  16.1km/h 79% 0in /  0.0mm 0.00 W/m2
16:35 46.6 °F /  8.1 °C 40.5 °F /  4.7 °C 29.9in /  1012.1hPa WSW 6mph /  9.7km/h 7mph /  11.3km/h 79% 0in /  0.0mm 0.00 W/m2
16:40 46.8 °F /  8.2 °C 41 °F /  5.0 °C 29.9in /  1012.1hPa SW 2.9mph /  4.7km/h 6mph /  9.7km/h 80% 0in /  0.0mm 0.00 W/m2
16:45 46.8 °F /  8.2 °C 40.6 °F /  4.8 °C 29.9in /  1012.1hPa SW 4mph /  6.4km/h 7mph /  11.3km/h 79% 0in /  0.0mm 0.00 W/m2
16:50 46.8 °F /  8.2 °C 40.6 °F /  4.8 °C 29.9in /  1012.1hPa Calm   4mph /  6.4km/h 79% 0in /  0.0mm 0.00 W/m2
16:55 46.6 °F /  8.1 °C 40.5 °F /  4.7 °C 29.9in /  1012.4hPa SSW 4.9mph /  7.9km/h 9mph /  14.5km/h 79% 0in /  0.0mm 0.00 W/m2
17:00 46.8 °F /  8.2 °C 40.6 °F /  4.8 °C 29.9in /  1012.4hPa WSW 4.9mph /  7.9km/h 7mph /  11.3km/h 79% 0in /  0.0mm 0.00 W/m2
17:05 46.6 °F /  8.1 °C 40.1 °F /  4.5 °C 29.9in /  1012.4hPa South 4mph /  6.4km/h 8mph /  12.9km/h 78% 0in /  0.0mm 0.00 W/m2
17:10 46.4 °F /  8.0 °C 40.3 °F /  4.6 °C 29.9in /  1012.8hPa SSW 2mph /  3.2km/h 8mph /  12.9km/h 79% 0in /  0.0mm 0.00 W/m2
17:15 46.2 °F /  7.9 °C 39.7 °F /  4.3 °C 29.9in /  1012.8hPa WSW 8.9mph /  14.3km/h 10mph /  16.1km/h 78% 0in /  0.0mm 0.00 W/m2
17:20 46.4 °F /  8.0 °C 40.3 °F /  4.6 °C 29.9in /  1012.8hPa West 6.9mph /  11.1km/h 9mph /  14.5km/h 79% 0in /  0.0mm 0.00 W/m2
17:25 46.4 °F /  8.0 °C 39.9 °F /  4.4 °C 29.9in /  1012.8hPa WSW 6mph /  9.7km/h 9mph /  14.5km/h 78% 0in /  0.0mm 0.00 W/m2
17:30 46.4 °F /  8.0 °C 39.9 °F /  4.4 °C 29.9in /  1012.8hPa Calm   7mph /  11.3km/h 78% 0in /  0.0mm 0.00 W/m2
17:35 46.2 °F /  7.9 °C 39.7 °F /  4.3 °C 29.9in /  1012.8hPa SW 2.9mph /  4.7km/h 4mph /  6.4km/h 78% 0in /  0.0mm 0.00 W/m2
17:40 46.2 °F /  7.9 °C 40.1 °F /  4.5 °C 29.9in /  1013.1hPa West 2mph /  3.2km/h 4mph /  6.4km/h 79% 0in /  0.0mm 0.00 W/m2
17:45 46.2 °F /  7.9 °C 39.7 °F /  4.3 °C 29.9in /  1013.1hPa WSW 6mph /  9.7km/h 6mph /  9.7km/h 78% 0in /  0.0mm 0.00 W/m2
17:50 46 °F /  7.8 °C 39.6 °F /  4.2 °C 29.9in /  1013.1hPa SSW 4.9mph /  7.9km/h 5mph /  8.0km/h 78% 0in /  0.0mm 0.00 W/m2
17:55 46 °F /  7.8 °C 39.6 °F /  4.2 °C 29.9in /  1013.4hPa SW 6.9mph /  11.1km/h 11mph /  17.7km/h 78% 0in /  0.0mm 0.00 W/m2
18:00 46 °F /  7.8 °C 39.6 °F /  4.2 °C 29.9in /  1013.4hPa SSW 2mph /  3.2km/h 7mph /  11.3km/h 78% 0in /  0.0mm 0.00 W/m2
18:05 46 °F /  7.8 °C 39.6 °F /  4.2 °C 29.9in /  1013.4hPa SSW 2.9mph /  4.7km/h 3mph /  4.8km/h 78% 0in /  0.0mm 0.00 W/m2
18:10 45.9 °F /  7.7 °C 39 °F /  3.9 °C 29.9in /  1013.4hPa Calm   4mph /  6.4km/h 77% 0in /  0.0mm 0.00 W/m2
18:15 45.7 °F /  7.6 °C 39.2 °F /  4.0 °C 29.9in /  1013.8hPa SSW 2mph /  3.2km/h 6mph /  9.7km/h 78% 0in /  0.0mm 0.00 W/m2
18:20 45.9 °F /  7.7 °C 39.4 °F /  4.1 °C 29.9in /  1013.8hPa West 2.9mph /  4.7km/h 7mph /  11.3km/h 78% 0in /  0.0mm 0.00 W/m2
18:25 45.9 °F /  7.7 °C 39.4 °F /  4.1 °C 29.9in /  1014.1hPa WSW 2.9mph /  4.7km/h 6mph /  9.7km/h 78% 0in /  0.0mm 0.00 W/m2
18:30 45.9 °F /  7.7 °C 39 °F /  3.9 °C 29.9in /  1014.1hPa WSW 2mph /  3.2km/h 8mph /  12.9km/h 77% 0in /  0.0mm 0.00 W/m2
18:35 45.9 °F /  7.7 °C 39.4 °F /  4.1 °C 29.9in /  1014.1hPa Calm   4mph /  6.4km/h 78% 0in /  0.0mm 0.00 W/m2
18:40 45.9 °F /  7.7 °C 39.4 °F /  4.1 °C 30in /  1014.4hPa SSW 2mph /  3.2km/h 7mph /  11.3km/h 78% 0in /  0.0mm 0.00 W/m2
18:45 45.9 °F /  7.7 °C 39.4 °F /  4.1 °C 30in /  1014.4hPa South 0.9mph /  1.4km/h 3mph /  4.8km/h 78% 0in /  0.0mm 0.00 W/m2
18:50 45.7 °F /  7.6 °C 38.8 °F /  3.8 °C 30in /  1014.4hPa South 0.9mph /  1.4km/h 7mph /  11.3km/h 77% 0in /  0.0mm 0.00 W/m2
18:55 45.7 °F /  7.6 °C 38.8 °F /  3.8 °C 30in /  1014.4hPa Calm   3mph /  4.8km/h 77% 0in /  0.0mm 0.00 W/m2
19:00 45.7 °F /  7.6 °C 38.8 °F /  3.8 °C 30in /  1014.4hPa SSW 2mph /  3.2km/h 4mph /  6.4km/h 77% 0in /  0.0mm 0.00 W/m2
19:05 45.7 °F /  7.6 °C 38.8 °F /  3.8 °C 30in /  1014.4hPa Calm   5mph /  8.0km/h 77% 0in /  0.0mm 0.00 W/m2
19:10 45.7 °F /  7.6 °C 39.2 °F /  4.0 °C 30in /  1014.8hPa Calm     78% 0in /  0.0mm 0.00 W/m2
19:15 45.5 °F /  7.5 °C 39 °F /  3.9 °C 30in /  1014.8hPa SSW 4.9mph /  7.9km/h 12mph /  19.3km/h 78% 0in /  0.0mm 0.00 W/m2
19:20 45.5 °F /  7.5 °C 39 °F /  3.9 °C 30in /  1014.8hPa West 2mph /  3.2km/h 7mph /  11.3km/h 78% 0in /  0.0mm 0.00 W/m2
19:25 45.5 °F /  7.5 °C 39 °F /  3.9 °C 30in /  1014.8hPa South 4mph /  6.4km/h 12mph /  19.3km/h 78% 0in /  0.0mm 0.00 W/m2
19:30 45.7 °F /  7.6 °C 39.2 °F /  4.0 °C 30in /  1014.8hPa South 4.9mph /  7.9km/h 5mph /  8.0km/h 78% 0in /  0.0mm 0.00 W/m2
19:35 45.5 °F /  7.5 °C 39.4 °F /  4.1 °C 30in /  1014.8hPa SSW 0.9mph /  1.4km/h 5mph /  8.0km/h 79% 0in /  0.0mm 0.00 W/m2
19:40 45.5 °F /  7.5 °C 39.4 °F /  4.1 °C 30in /  1014.8hPa South 6mph /  9.7km/h 11mph /  17.7km/h 79% 0in /  0.0mm 0.00 W/m2
19:45 45.7 °F /  7.6 °C 39.6 °F /  4.2 °C 30in /  1014.8hPa South 2mph /  3.2km/h 5mph /  8.0km/h 79% 0in /  0.0mm 0.00 W/m2
19:50 45.9 °F /  7.7 °C 39.7 °F /  4.3 °C 30in /  1015.1hPa SSW 4mph /  6.4km/h 9mph /  14.5km/h 79% 0in /  0.0mm 0.00 W/m2
19:55 45.9 °F /  7.7 °C 39.7 °F /  4.3 °C 30in /  1015.1hPa SSW 2mph /  3.2km/h 10mph /  16.1km/h 79% 0in /  0.0mm 0.00 W/m2
20:00 45.7 °F /  7.6 °C 39.6 °F /  4.2 °C 30in /  1015.1hPa SSE 2mph /  3.2km/h 10mph /  16.1km/h 79% 0in /  0.0mm 0.00 W/m2
20:05 45.7 °F /  7.6 °C 39.9 °F /  4.4 °C 30in /  1015.1hPa Calm   5mph /  8.0km/h 80% 0in /  0.0mm 0.00 W/m2
20:10 45.3 °F /  7.4 °C 39.6 °F /  4.2 °C 30in /  1015.1hPa SW 2.9mph /  4.7km/h 10mph /  16.1km/h 80% 0in /  0.0mm 0.00 W/m2
20:15 45.3 °F /  7.4 °C 39.6 °F /  4.2 °C 30in /  1015.1hPa Calm   3mph /  4.8km/h 80% 0in /  0.0mm 0.00 W/m2
20:20 45.3 °F /  7.4 °C 39.9 °F /  4.4 °C 30in /  1015.5hPa SSW 0.9mph /  1.4km/h 5mph /  8.0km/h 81% 0in /  0.0mm 0.00 W/m2
20:25 45.3 °F /  7.4 °C 39.9 °F /  4.4 °C 30in /  1015.5hPa SSW 0.9mph /  1.4km/h 4mph /  6.4km/h 81% 0in /  0.0mm 0.00 W/m2
20:30 45.3 °F /  7.4 °C 40.1 °F /  4.5 °C 30in /  1015.5hPa SSE 2.9mph /  4.7km/h 5mph /  8.0km/h 82% 0in /  0.0mm 0.00 W/m2
20:35 45.3 °F /  7.4 °C 40.1 °F /  4.5 °C 30in /  1015.8hPa SW 6mph /  9.7km/h 7mph /  11.3km/h 82% 0in /  0.0mm 0.00 W/m2
20:40 45.5 °F /  7.5 °C 40.3 °F /  4.6 °C 30in /  1015.8hPa South 4.9mph /  7.9km/h 7mph /  11.3km/h 82% 0in /  0.0mm 0.00 W/m2
20:45 45.7 °F /  7.6 °C 40.5 °F /  4.7 °C 30in /  1015.8hPa SSW 8.1mph /  13.0km/h 10mph /  16.1km/h 82% 0in /  0.0mm 0.00 W/m2
20:50 45.9 °F /  7.7 °C 40.6 °F /  4.8 °C 30in /  1015.8hPa SSW 4.9mph /  7.9km/h 7mph /  11.3km/h 82% 0in /  0.0mm 0.00 W/m2
20:55 45.9 °F /  7.7 °C 40.6 °F /  4.8 °C 30in /  1015.8hPa South 4mph /  6.4km/h 8mph /  12.9km/h 82% 0in /  0.0mm 0.00 W/m2
21:00 45.9 °F /  7.7 °C 40.6 °F /  4.8 °C 30in /  1016.1hPa SSW 8.1mph /  13.0km/h 9mph /  14.5km/h 82% 0in /  0.0mm 0.00 W/m2
21:05 45.9 °F /  7.7 °C 40.6 °F /  4.8 °C 30in /  1016.1hPa SSW 2mph /  3.2km/h 8mph /  12.9km/h 82% 0in /  0.0mm 0.00 W/m2
21:10 45.9 °F /  7.7 °C 40.3 °F /  4.6 °C 30in /  1016.1hPa South 2.9mph /  4.7km/h 6mph /  9.7km/h 81% 0in /  0.0mm 0.00 W/m2
21:15 45.7 °F /  7.6 °C 40.5 °F /  4.7 °C 30in /  1016.1hPa SSW 8.9mph /  14.3km/h 9mph /  14.5km/h 82% 0in /  0.0mm 0.00 W/m2
21:20 45.7 °F /  7.6 °C 40.5 °F /  4.7 °C 30in /  1016.1hPa SSW 2mph /  3.2km/h 6mph /  9.7km/h 82% 0in /  0.0mm 0.00 W/m2
21:25 45.9 °F /  7.7 °C 40.6 °F /  4.8 °C 30in /  1016.1hPa SW 6mph /  9.7km/h 8mph /  12.9km/h 82% 0in /  0.0mm 0.00 W/m2
21:30 45.9 °F /  7.7 °C 40.6 °F /  4.8 °C 30in /  1016.1hPa South 2.9mph /  4.7km/h 6mph /  9.7km/h 82% 0in /  0.0mm 0.00 W/m2
21:35 45.9 °F /  7.7 °C 40.6 °F /  4.8 °C 30in /  1016.1hPa South 2.9mph /  4.7km/h 8mph /  12.9km/h 82% 0in /  0.0mm 0.00 W/m2
21:40 45.5 °F /  7.5 °C 40.3 °F /  4.6 °C 30in /  1016.1hPa South 4.9mph /  7.9km/h 5mph /  8.0km/h 82% 0in /  0.0mm 0.00 W/m2
21:45 45.3 °F /  7.4 °C 40.1 °F /  4.5 °C 30in /  1016.1hPa South 2mph /  3.2km/h 5mph /  8.0km/h 82% 0in /  0.0mm 0.00 W/m2
21:50 45.1 °F /  7.3 °C 40.3 °F /  4.6 °C 30in /  1016.1hPa SSE 0.9mph /  1.4km/h 5mph /  8.0km/h 83% 0in /  0.0mm 0.00 W/m2
21:55 45.1 °F /  7.3 °C 40.3 °F /  4.6 °C 30in /  1016.1hPa Calm   2mph /  3.2km/h 83% 0in /  0.0mm 0.00 W/m2
22:00 45.1 °F /  7.3 °C 40.3 °F /  4.6 °C 30in /  1016.1hPa Calm     83% 0in /  0.0mm 0.00 W/m2
22:05 44.4 °F /  6.9 °C 39.6 °F /  4.2 °C 30in /  1016.1hPa SSE 2mph /  3.2km/h 2mph /  3.2km/h 83% 0in /  0.0mm 0.00 W/m2
22:10 44.1 °F /  6.7 °C 39.9 °F /  4.4 °C 30in /  1016.1hPa Calm     85% 0in /  0.0mm 0.00 W/m2
22:15 44.1 °F /  6.7 °C 40.1 °F /  4.5 °C 30in /  1016.1hPa Calm     86% 0in /  0.0mm 0.00 W/m2
22:20 43.7 °F /  6.5 °C 39.6 °F /  4.2 °C 30in /  1016.1hPa Calm   1mph /  1.6km/h 85% 0in /  0.0mm 0.00 W/m2
22:25 43.3 °F /  6.3 °C 39.4 °F /  4.1 °C 30in /  1016.5hPa Calm     86% 0in /  0.0mm 0.00 W/m2
22:30 43.2 °F /  6.2 °C 39.6 °F /  4.2 °C 30in /  1016.5hPa Calm   3mph /  4.8km/h 87% 0in /  0.0mm 0.00 W/m2
22:35 43.5 °F /  6.4 °C 40.3 °F /  4.6 °C 30in /  1016.5hPa Calm     88% 0in /  0.0mm 0.00 W/m2
22:40 43.5 °F /  6.4 °C 39.9 °F /  4.4 °C 30in /  1016.5hPa Calm   1mph /  1.6km/h 87% 0in /  0.0mm 0.00 W/m2
22:45 43.5 °F /  6.4 °C 40.3 °F /  4.6 °C 30in /  1016.5hPa Calm   2mph /  3.2km/h 88% 0in /  0.0mm 0.00 W/m2
22:50 43.7 °F /  6.5 °C 40.5 °F /  4.7 °C 30in /  1016.5hPa Calm     88% 0in /  0.0mm 0.00 W/m2
22:55 44.2 °F /  6.8 °C 41.2 °F /  5.1 °C 30in /  1016.5hPa SSW 4.9mph /  7.9km/h 12mph /  19.3km/h 89% 0in /  0.0mm 0.00 W/m2
23:00 45.1 °F /  7.3 °C 41.7 °F /  5.4 °C 30in /  1016.5hPa SW 6.9mph /  11.1km/h 10mph /  16.1km/h 88% 0in /  0.0mm 0.00 W/m2
23:05 45.7 °F /  7.6 °C 42.1 °F /  5.6 °C 30in /  1016.5hPa South 2.9mph /  4.7km/h 7mph /  11.3km/h 87% 0in /  0.0mm 0.00 W/m2
23:10 45.9 °F /  7.7 °C 41.9 °F /  5.5 °C 30in /  1016.8hPa SSE 4.9mph /  7.9km/h 9mph /  14.5km/h 86% 0in /  0.0mm 0.00 W/m2
23:15 45.9 °F /  7.7 °C 41.9 °F /  5.5 °C 30in /  1016.8hPa SSE 2.9mph /  4.7km/h 7mph /  11.3km/h 86% 0in /  0.0mm 0.00 W/m2
23:20 45.9 °F /  7.7 °C 41.9 °F /  5.5 °C 30in /  1016.8hPa SSE 4mph /  6.4km/h 7mph /  11.3km/h 86% 0in /  0.0mm 0.00 W/m2
23:25 45.9 °F /  7.7 °C 41.9 °F /  5.5 °C 30in /  1016.8hPa SSE 2.9mph /  4.7km/h 7mph /  11.3km/h 86% 0in /  0.0mm 0.00 W/m2
23:30 45.9 °F /  7.7 °C 41.9 °F /  5.5 °C 30in /  1016.8hPa SE 4mph /  6.4km/h 5mph /  8.0km/h 86% 0in /  0.0mm 0.00 W/m2
23:35 45.7 °F /  7.6 °C 41.7 °F /  5.4 °C 30in /  1016.8hPa SSE 2.9mph /  4.7km/h 3mph /  4.8km/h 86% 0in /  0.0mm 0.00 W/m2
23:40 45.3 °F /  7.4 °C 41.4 °F /  5.2 °C 30in /  1016.8hPa SSE 2mph /  3.2km/h 4mph /  6.4km/h 86% 0in /  0.0mm 0.00 W/m2
23:45 45.1 °F /  7.3 °C 41.2 °F /  5.1 °C 30in /  1016.8hPa Calm     86% 0in /  0.0mm 0.00 W/m2
23:50 44.8 °F /  7.1 °C 40.8 °F /  4.9 °C 30in /  1016.8hPa Calm     86% 0in /  0.0mm 0.00 W/m2
23:55 44.1 °F /  6.7 °C 40.1 °F /  4.5 °C 30in /  1016.8hPa Calm     86% 0in /  0.0mm 0.00 W/m2